Accueil
METAR-TAF:

METAR-TAF

Aéroports :

Farnborough, Angleterre

latitude: 51-17N, longitude: 000-46W, altitude: 65 m

Observation

Le bulletin a été fait il y a 27 minutes, à 08:50 UTC
Vent 11 kt de ouest, variant entre ouest/sud-ouest et nord-ouest
Température 16°C
Humidité 72%
Pression 1017 hPa
Visibilité 10 km ou plus
Quelques nuages à une hauteur de 1100 ft

METAR: EGLF 190850Z 26011KT 240V310 9999 FEW011 16/11 Q1017

Heure: 10:17 (09:17 UTC)

Prévision

Le bulletin a été fait il y a 1 heure et 14 minutes, à 08:03 UTC
Prévision valable du 19 à 09 UTC au 19 à 18 UTC
Vent 12 kt de ouest
Visibilité 10 km ou plus
Nuages épars à une hauteur de 2500 ft
Temporairement
du 19 à 10 UTC au 19 à 15 UTC
Vent 15 kt de ouest avec des rafales jusqu'à 25 kt

TAF: EGLF 190803Z 1909/1918 26012KT 9999 SCT025 TEMPO 1910/1915 27015G25KT

Observations et prévisions météorologiques de plus de 4000 aéroports (messages METAR et TAF).

Les stations disponibles sont représentées par des disques jaunes et rouges sur la carte.

Passer la souris dessus pour voir le nom de la station.

Cliquer dessus pour voir les observations et prévisions météorologiques.

Pour changer de carte: cliquez sur les boutons verts avec une croix noire pour zoomer, sur le bouton vert avec un tiret pour effectuer un zoom arrière, ou sur les flèches vertes pour les cartes adjacentes.


METAR-TAF: